sensor_id;sensor_type;location;lat;lon;timestamp;temperature;humidity
47576;DHT22;33304;52.456;13.328;2023-02-01T00:02:16;4.70;50.90
47576;DHT22;33304;52.456;13.328;2023-02-01T00:04:43;4.70;50.90
47576;DHT22;33304;52.456;13.328;2023-02-01T00:07:10;4.80;49.60
47576;DHT22;33304;52.456;13.328;2023-02-01T00:09:37;4.70;49.80
47576;DHT22;33304;52.456;13.328;2023-02-01T00:12:05;4.70;48.70
47576;DHT22;33304;52.456;13.328;2023-02-01T00:14:32;4.80;48.30
47576;DHT22;33304;52.456;13.328;2023-02-01T00:17:04;4.80;46.40
47576;DHT22;33304;52.456;13.328;2023-02-01T00:19:32;4.90;45.80
47576;DHT22;33304;52.456;13.328;2023-02-01T00:22:00;4.80;45.70
47576;DHT22;33304;52.456;13.328;2023-02-01T00:24:27;4.80;46.20
47576;DHT22;33304;52.456;13.328;2023-02-01T00:26:54;4.70;46.90
47576;DHT22;33304;52.456;13.328;2023-02-01T00:29:22;4.70;45.30
47576;DHT22;33304;52.456;13.328;2023-02-01T00:31:50;4.80;45.00
47576;DHT22;33304;52.456;13.328;2023-02-01T00:34:19;4.90;45.00
47576;DHT22;33304;52.456;13.328;2023-02-01T00:36:46;4.80;43.40
47576;DHT22;33304;52.456;13.328;2023-02-01T00:39:14;5.00;44.80
47576;DHT22;33304;52.456;13.328;2023-02-01T00:41:41;4.80;45.00
47576;DHT22;33304;52.456;13.328;2023-02-01T00:44:08;4.80;45.40
47576;DHT22;33304;52.456;13.328;2023-02-01T00:46:37;4.80;44.70
47576;DHT22;33304;52.456;13.328;2023-02-01T00:49:04;4.80;45.40
47576;DHT22;33304;52.456;13.328;2023-02-01T00:51:33;4.80;45.90
47576;DHT22;33304;52.456;13.328;2023-02-01T00:54:00;4.70;45.70
47576;DHT22;33304;52.456;13.328;2023-02-01T00:56:27;4.60;46.30
47576;DHT22;33304;52.456;13.328;2023-02-01T00:58:54;4.60;46.60
47576;DHT22;33304;52.456;13.328;2023-02-01T01:01:23;4.60;47.30
47576;DHT22;33304;52.456;13.328;2023-02-01T01:03:53;4.50;47.20
47576;DHT22;33304;52.456;13.328;2023-02-01T01:06:22;4.50;47.60
47576;DHT22;33304;52.456;13.328;2023-02-01T01:08:50;4.60;47.30
47576;DHT22;33304;52.456;13.328;2023-02-01T01:11:20;4.50;47.60
47576;DHT22;33304;52.456;13.328;2023-02-01T01:13:48;4.50;47.90
47576;DHT22;33304;52.456;13.328;2023-02-01T01:16:16;4.40;48.70
47576;DHT22;33304;52.456;13.328;2023-02-01T01:18:43;4.50;49.10
47576;DHT22;33304;52.456;13.328;2023-02-01T01:21:14;4.40;49.20
47576;DHT22;33304;52.456;13.328;2023-02-01T01:23:42;4.50;48.50
47576;DHT22;33304;52.456;13.328;2023-02-01T01:26:13;4.50;48.60
47576;DHT22;33304;52.456;13.328;2023-02-01T01:28:41;4.50;48.30
47576;DHT22;33304;52.456;13.328;2023-02-01T01:31:09;4.50;48.30
47576;DHT22;33304;52.456;13.328;2023-02-01T01:33:36;4.50;47.10
47576;DHT22;33304;52.456;13.328;2023-02-01T01:36:04;4.50;47.20
47576;DHT22;33304;52.456;13.328;2023-02-01T01:38:33;4.50;47.20
47576;DHT22;33304;52.456;13.328;2023-02-01T01:41:01;4.60;46.70
47576;DHT22;33304;52.456;13.328;2023-02-01T01:43:46;4.60;45.50
47576;DHT22;33304;52.456;13.328;2023-02-01T01:46:16;4.60;45.20
47576;DHT22;33304;52.456;13.328;2023-02-01T01:48:43;4.70;44.80
47576;DHT22;33304;52.456;13.328;2023-02-01T01:51:13;4.70;43.70
47576;DHT22;33304;52.456;13.328;2023-02-01T01:53:46;4.70;43.60
47576;DHT22;33304;52.456;13.328;2023-02-01T01:56:14;4.70;43.40
47576;DHT22;33304;52.456;13.328;2023-02-01T01:58:42;4.80;42.80
47576;DHT22;33304;52.456;13.328;2023-02-01T02:01:09;4.90;43.00
47576;DHT22;33304;52.456;13.328;2023-02-01T02:03:40;4.80;42.80
47576;DHT22;33304;52.456;13.328;2023-02-01T02:06:12;4.80;41.70
47576;DHT22;33304;52.456;13.328;2023-02-01T02:08:43;4.90;41.80
47576;DHT22;33304;52.456;13.328;2023-02-01T02:11:12;4.90;41.40
47576;DHT22;33304;52.456;13.328;2023-02-01T02:13:46;4.90;41.70
47576;DHT22;33304;52.456;13.328;2023-02-01T02:23:03;4.90;40.90
47576;DHT22;33304;52.456;13.328;2023-02-01T02:25:59;4.90;41.60
47576;DHT22;33304;52.456;13.328;2023-02-01T02:28:55;4.90;41.30
47576;DHT22;33304;52.456;13.328;2023-02-01T02:31:41;4.90;41.50
47576;DHT22;33304;52.456;13.328;2023-02-01T02:34:19;4.90;40.90
47576;DHT22;33304;52.456;13.328;2023-02-01T02:36:58;4.90;41.00
47576;DHT22;33304;52.456;13.328;2023-02-01T02:39:37;4.90;41.00
47576;DHT22;33304;52.456;13.328;2023-02-01T02:42:12;4.90;41.90
47576;DHT22;33304;52.456;13.328;2023-02-01T02:45:03;4.90;41.90
47576;DHT22;33304;52.456;13.328;2023-02-01T02:47:53;4.90;41.30
47576;DHT22;33304;52.456;13.328;2023-02-01T02:50:26;4.90;41.20
47576;DHT22;33304;52.456;13.328;2023-02-01T02:53:15;4.90;41.30
47576;DHT22;33304;52.456;13.328;2023-02-01T02:56:02;5.00;41.60
47576;DHT22;33304;52.456;13.328;2023-02-01T02:58:48;4.90;41.70
47576;DHT22;33304;52.456;13.328;2023-02-01T03:01:33;4.90;41.80
47576;DHT22;33304;52.456;13.328;2023-02-01T03:04:18;4.90;41.90
47576;DHT22;33304;52.456;13.328;2023-02-01T03:06:49;5.00;41.40
47576;DHT22;33304;52.456;13.328;2023-02-01T03:09:23;5.00;40.90
47576;DHT22;33304;52.456;13.328;2023-02-01T03:11:58;5.00;41.50
47576;DHT22;33304;52.456;13.328;2023-02-01T03:14:50;5.00;41.20
47576;DHT22;33304;52.456;13.328;2023-02-01T03:17:22;5.00;41.10
47576;DHT22;33304;52.456;13.328;2023-02-01T03:19:52;5.00;41.00
47576;DHT22;33304;52.456;13.328;2023-02-01T03:22:24;5.00;40.70
47576;DHT22;33304;52.456;13.328;2023-02-01T03:24:55;5.00;40.90
47576;DHT22;33304;52.456;13.328;2023-02-01T03:27:28;5.00;40.40
47576;DHT22;33304;52.456;13.328;2023-02-01T03:30:02;5.10;40.00
47576;DHT22;33304;52.456;13.328;2023-02-01T03:32:32;5.10;40.00
47576;DHT22;33304;52.456;13.328;2023-02-01T03:35:25;5.10;40.00
47576;DHT22;33304;52.456;13.328;2023-02-01T03:37:59;5.10;40.00
47576;DHT22;33304;52.456;13.328;2023-02-01T03:40:32;5.10;40.00
47576;DHT22;33304;52.456;13.328;2023-02-01T03:43:05;5.00;39.90
47576;DHT22;33304;52.456;13.328;2023-02-01T03:45:36;5.10;40.00
47576;DHT22;33304;52.456;13.328;2023-02-01T03:48:07;5.10;40.00
47576;DHT22;33304;52.456;13.328;2023-02-01T03:50:37;5.20;40.10
47576;DHT22;33304;52.456;13.328;2023-02-01T03:53:10;5.20;40.00
47576;DHT22;33304;52.456;13.328;2023-02-01T03:55:38;5.10;40.00
47576;DHT22;33304;52.456;13.328;2023-02-01T03:58:09;5.10;40.00
47576;DHT22;33304;52.456;13.328;2023-02-01T04:00:38;5.20;40.10
47576;DHT22;33304;52.456;13.328;2023-02-01T04:03:06;5.20;39.20
47576;DHT22;33304;52.456;13.328;2023-02-01T04:05:34;5.20;39.70
47576;DHT22;33304;52.456;13.328;2023-02-01T04:08:04;5.20;39.10
47576;DHT22;33304;52.456;13.328;2023-02-01T04:10:33;5.30;38.90
47576;DHT22;33304;52.456;13.328;2023-02-01T04:13:00;5.30;39.00
47576;DHT22;33304;52.456;13.328;2023-02-01T04:15:27;5.30;39.10
47576;DHT22;33304;52.456;13.328;2023-02-01T04:17:54;5.30;38.90
47576;DHT22;33304;52.456;13.328;2023-02-01T04:20:21;5.30;38.80
47576;DHT22;33304;52.456;13.328;2023-02-01T04:22:49;5.30;38.50
47576;DHT22;33304;52.456;13.328;2023-02-01T04:25:16;5.40;39.10
47576;DHT22;33304;52.456;13.328;2023-02-01T04:27:47;5.40;38.50
47576;DHT22;33304;52.456;13.328;2023-02-01T04:30:15;5.40;38.50
47576;DHT22;33304;52.456;13.328;2023-02-01T04:32:42;5.40;38.70
47576;DHT22;33304;52.456;13.328;2023-02-01T04:35:09;5.40;38.20
47576;DHT22;33304;52.456;13.328;2023-02-01T04:37:37;5.40;38.90
47576;DHT22;33304;52.456;13.328;2023-02-01T04:40:05;5.50;38.30
47576;DHT22;33304;52.456;13.328;2023-02-01T04:42:33;5.50;38.30
47576;DHT22;33304;52.456;13.328;2023-02-01T04:45:01;5.50;37.70
47576;DHT22;33304;52.456;13.328;2023-02-01T04:47:28;5.50;37.80
47576;DHT22;33304;52.456;13.328;2023-02-01T04:49:55;5.50;37.80
47576;DHT22;33304;52.456;13.328;2023-02-01T04:52:22;5.60;37.40
47576;DHT22;33304;52.456;13.328;2023-02-01T04:54:49;5.60;37.30
47576;DHT22;33304;52.456;13.328;2023-02-01T04:57:17;5.60;37.40
47576;DHT22;33304;52.456;13.328;2023-02-01T04:59:44;5.60;37.30
47576;DHT22;33304;52.456;13.328;2023-02-01T05:02:12;5.60;37.00
47576;DHT22;33304;52.456;13.328;2023-02-01T05:04:39;5.60;37.70
47576;DHT22;33304;52.456;13.328;2023-02-01T05:07:06;5.60;37.30
47576;DHT22;33304;52.456;13.328;2023-02-01T05:09:33;5.60;37.10
47576;DHT22;33304;52.456;13.328;2023-02-01T05:12:00;5.70;36.90
47576;DHT22;33304;52.456;13.328;2023-02-01T05:14:45;5.70;36.90
47576;DHT22;33304;52.456;13.328;2023-02-01T05:17:14;5.60;36.80
47576;DHT22;33304;52.456;13.328;2023-02-01T05:19:41;5.70;37.30
47576;DHT22;33304;52.456;13.328;2023-02-01T05:22:09;5.60;37.00
47576;DHT22;33304;52.456;13.328;2023-02-01T05:24:36;5.60;37.00
47576;DHT22;33304;52.456;13.328;2023-02-01T05:27:03;5.70;36.90
47576;DHT22;33304;52.456;13.328;2023-02-01T05:29:30;5.60;37.20
47576;DHT22;33304;52.456;13.328;2023-02-01T05:31:57;5.70;37.30
47576;DHT22;33304;52.456;13.328;2023-02-01T05:34:25;5.60;36.60
47576;DHT22;33304;52.456;13.328;2023-02-01T05:36:52;5.70;36.70
47576;DHT22;33304;52.456;13.328;2023-02-01T05:39:19;5.70;36.80
47576;DHT22;33304;52.456;13.328;2023-02-01T05:41:46;5.70;37.20
47576;DHT22;33304;52.456;13.328;2023-02-01T05:44:14;5.70;37.10
47576;DHT22;33304;52.456;13.328;2023-02-01T05:46:41;5.60;36.70
47576;DHT22;33304;52.456;13.328;2023-02-01T05:49:08;5.70;37.60
47576;DHT22;33304;52.456;13.328;2023-02-01T05:51:36;5.60;37.40
47576;DHT22;33304;52.456;13.328;2023-02-01T05:54:03;5.70;36.80
47576;DHT22;33304;52.456;13.328;2023-02-01T05:56:30;5.70;36.60
47576;DHT22;33304;52.456;13.328;2023-02-01T05:58:57;5.70;37.60
47576;DHT22;33304;52.456;13.328;2023-02-01T06:01:24;5.60;37.30
47576;DHT22;33304;52.456;13.328;2023-02-01T06:03:52;5.70;37.90
47576;DHT22;33304;52.456;13.328;2023-02-01T06:06:19;5.60;38.40
47576;DHT22;33304;52.456;13.328;2023-02-01T06:08:47;5.50;39.00
47576;DHT22;33304;52.456;13.328;2023-02-01T06:11:14;5.50;40.40
47576;DHT22;33304;52.456;13.328;2023-02-01T06:13:41;5.50;40.40
47576;DHT22;33304;52.456;13.328;2023-02-01T06:16:08;5.40;40.20
47576;DHT22;33304;52.456;13.328;2023-02-01T06:18:35;5.40;40.20
47576;DHT22;33304;52.456;13.328;2023-02-01T06:21:03;5.30;40.20
47576;DHT22;33304;52.456;13.328;2023-02-01T06:23:31;5.40;41.10
47576;DHT22;33304;52.456;13.328;2023-02-01T06:26:00;5.30;40.20
47576;DHT22;33304;52.456;13.328;2023-02-01T06:28:28;5.30;41.30
47576;DHT22;33304;52.456;13.328;2023-02-01T06:30:57;5.30;41.70
47576;DHT22;33304;52.456;13.328;2023-02-01T06:33:24;5.30;41.40
47576;DHT22;33304;52.456;13.328;2023-02-01T06:35:57;5.30;42.30
47576;DHT22;33304;52.456;13.328;2023-02-01T06:38:24;5.20;43.00
47576;DHT22;33304;52.456;13.328;2023-02-01T06:40:52;5.20;42.60
47576;DHT22;33304;52.456;13.328;2023-02-01T06:43:21;5.20;43.10
47576;DHT22;33304;52.456;13.328;2023-02-01T06:45:48;5.10;42.90
47576;DHT22;33304;52.456;13.328;2023-02-01T06:48:15;5.10;43.60
47576;DHT22;33304;52.456;13.328;2023-02-01T06:50:42;5.00;43.40
47576;DHT22;33304;52.456;13.328;2023-02-01T06:53:09;5.10;43.80
47576;DHT22;33304;52.456;13.328;2023-02-01T06:55:36;5.10;43.30
47576;DHT22;33304;52.456;13.328;2023-02-01T06:58:03;5.10;42.40
47576;DHT22;33304;52.456;13.328;2023-02-01T07:00:31;5.10;42.50
47576;DHT22;33304;52.456;13.328;2023-02-01T07:02:59;5.10;42.10
47576;DHT22;33304;52.456;13.328;2023-02-01T07:05:26;5.20;40.10
47576;DHT22;33304;52.456;13.328;2023-02-01T07:07:53;5.20;40.90
47576;DHT22;33304;52.456;13.328;2023-02-01T07:10:21;5.20;40.10
47576;DHT22;33304;52.456;13.328;2023-02-01T07:12:48;5.20;40.10
47576;DHT22;33304;52.456;13.328;2023-02-01T07:15:15;5.20;40.40
47576;DHT22;33304;52.456;13.328;2023-02-01T07:17:43;5.30;40.30
47576;DHT22;33304;52.456;13.328;2023-02-01T07:20:11;5.20;41.80
47576;DHT22;33304;52.456;13.328;2023-02-01T07:22:38;5.20;42.00
47576;DHT22;33304;52.456;13.328;2023-02-01T07:25:06;5.10;42.40
47576;DHT22;33304;52.456;13.328;2023-02-01T07:27:34;5.10;43.70
47576;DHT22;33304;52.456;13.328;2023-02-01T07:30:01;5.10;44.00
47576;DHT22;33304;52.456;13.328;2023-02-01T07:32:28;5.10;43.80
47576;DHT22;33304;52.456;13.328;2023-02-01T07:34:57;5.00;44.20
47576;DHT22;33304;52.456;13.328;2023-02-01T07:37:25;5.10;44.70
47576;DHT22;33304;52.456;13.328;2023-02-01T07:39:52;5.00;45.00
47576;DHT22;33304;52.456;13.328;2023-02-01T07:42:19;5.10;45.60
47576;DHT22;33304;52.456;13.328;2023-02-01T07:44:46;5.00;46.30
47576;DHT22;33304;52.456;13.328;2023-02-01T07:47:13;5.00;48.10
47576;DHT22;33304;52.456;13.328;2023-02-01T07:49:40;4.90;51.00
47576;DHT22;33304;52.456;13.328;2023-02-01T07:52:08;4.70;52.50
47576;DHT22;33304;52.456;13.328;2023-02-01T07:54:37;4.60;53.70
47576;DHT22;33304;52.456;13.328;2023-02-01T07:57:04;4.50;56.80
47576;DHT22;33304;52.456;13.328;2023-02-01T07:59:31;4.50;58.80
47576;DHT22;33304;52.456;13.328;2023-02-01T08:01:58;4.40;61.40
47576;DHT22;33304;52.456;13.328;2023-02-01T08:04:24;4.40;63.10
47576;DHT22;33304;52.456;13.328;2023-02-01T08:06:51;4.30;66.70
47576;DHT22;33304;52.456;13.328;2023-02-01T08:09:19;4.30;70.50
47576;DHT22;33304;52.456;13.328;2023-02-01T08:11:46;4.30;72.10
47576;DHT22;33304;52.456;13.328;2023-02-01T08:14:13;4.40;78.60
47576;DHT22;33304;52.456;13.328;2023-02-01T08:16:40;4.20;78.70
47576;DHT22;33304;52.456;13.328;2023-02-01T08:19:08;4.20;81.40
47576;DHT22;33304;52.456;13.328;2023-02-01T08:21:35;4.10;84.10
47576;DHT22;33304;52.456;13.328;2023-02-01T08:24:05;4.10;87.10
47576;DHT22;33304;52.456;13.328;2023-02-01T08:26:34;4.10;91.00
47576;DHT22;33304;52.456;13.328;2023-02-01T08:29:03;4.10;90.80
47576;DHT22;33304;52.456;13.328;2023-02-01T08:31:31;4.10;91.30
47576;DHT22;33304;52.456;13.328;2023-02-01T08:34:00;4.10;95.00
47576;DHT22;33304;52.456;13.328;2023-02-01T08:36:30;4.10;99.90
47576;DHT22;33304;52.456;13.328;2023-02-01T08:38:57;4.10;99.90
47576;DHT22;33304;52.456;13.328;2023-02-01T08:41:26;4.20;99.90
47576;DHT22;33304;52.456;13.328;2023-02-01T08:43:55;4.20;99.90
47576;DHT22;33304;52.456;13.328;2023-02-01T08:46:23;4.20;99.90
47576;DHT22;33304;52.456;13.328;2023-02-01T08:48:50;4.30;99.90
47576;DHT22;33304;52.456;13.328;2023-02-01T08:51:20;4.40;99.90
47576;DHT22;33304;52.456;13.328;2023-02-01T08:53:47;4.40;99.90
47576;DHT22;33304;52.456;13.328;2023-02-01T08:56:16;4.40;99.90
47576;DHT22;33304;52.456;13.328;2023-02-01T08:58:44;4.50;99.90
47576;DHT22;33304;52.456;13.328;2023-02-01T09:01:14;4.40;99.90
47576;DHT22;33304;52.456;13.328;2023-02-01T09:03:42;4.30;99.90
47576;DHT22;33304;52.456;13.328;2023-02-01T09:06:11;4.40;99.90
47576;DHT22;33304;52.456;13.328;2023-02-01T09:08:40;4.30;99.90
47576;DHT22;33304;52.456;13.328;2023-02-01T09:11:10;4.30;99.90
47576;DHT22;33304;52.456;13.328;2023-02-01T09:13:38;4.40;99.90
47576;DHT22;33304;52.456;13.328;2023-02-01T09:16:05;4.30;99.90
47576;DHT22;33304;52.456;13.328;2023-02-01T09:18:34;4.30;99.90
47576;DHT22;33304;52.456;13.328;2023-02-01T09:21:04;4.20;99.90
47576;DHT22;33304;52.456;13.328;2023-02-01T09:23:31;4.40;99.90
47576;DHT22;33304;52.456;13.328;2023-02-01T09:25:59;4.30;99.90
47576;DHT22;33304;52.456;13.328;2023-02-01T09:28:26;4.30;99.90
47576;DHT22;33304;52.456;13.328;2023-02-01T09:30:55;4.30;99.90
47576;DHT22;33304;52.456;13.328;2023-02-01T09:33:22;4.30;99.90
47576;DHT22;33304;52.456;13.328;2023-02-01T09:35:56;4.30;99.90
47576;DHT22;33304;52.456;13.328;2023-02-01T09:38:23;4.40;99.90
47576;DHT22;33304;52.456;13.328;2023-02-01T09:40:53;4.40;99.90
47576;DHT22;33304;52.456;13.328;2023-02-01T09:43:28;4.40;98.80
47576;DHT22;33304;52.456;13.328;2023-02-01T09:46:03;4.40;98.60
47576;DHT22;33304;52.456;13.328;2023-02-01T09:48:35;4.30;98.60
47576;DHT22;33304;52.456;13.328;2023-02-01T09:51:07;4.40;97.70
47576;DHT22;33304;52.456;13.328;2023-02-01T09:53:42;4.50;95.50
47576;DHT22;33304;52.456;13.328;2023-02-01T09:56:12;4.40;94.60
47576;DHT22;33304;52.456;13.328;2023-02-01T09:58:42;4.50;94.90
47576;DHT22;33304;52.456;13.328;2023-02-01T10:01:19;4.50;93.20
47576;DHT22;33304;52.456;13.328;2023-02-01T10:03:48;4.40;92.60
47576;DHT22;33304;52.456;13.328;2023-02-01T10:06:27;4.40;94.50
47576;DHT22;33304;52.456;13.328;2023-02-01T10:09:17;4.40;95.50
47576;DHT22;33304;52.456;13.328;2023-02-01T10:11:56;4.40;95.10
47576;DHT22;33304;52.456;13.328;2023-02-01T10:14:49;4.40;97.10
47576;DHT22;33304;52.456;13.328;2023-02-01T10:17:28;4.50;97.70
47576;DHT22;33304;52.456;13.328;2023-02-01T10:20:06;4.50;99.90
47576;DHT22;33304;52.456;13.328;2023-02-01T10:22:41;4.50;99.40
47576;DHT22;33304;52.456;13.328;2023-02-01T10:25:16;4.60;95.60
47576;DHT22;33304;52.456;13.328;2023-02-01T10:27:46;4.60;95.90
47576;DHT22;33304;52.456;13.328;2023-02-01T10:30:19;4.60;96.00
47576;DHT22;33304;52.456;13.328;2023-02-01T10:32:49;4.60;95.20
47576;DHT22;33304;52.456;13.328;2023-02-01T10:35:24;4.60;95.00
47576;DHT22;33304;52.456;13.328;2023-02-01T10:37:58;4.60;94.50
47576;DHT22;33304;52.456;13.328;2023-02-01T10:40:27;4.60;94.20
47576;DHT22;33304;52.456;13.328;2023-02-01T10:42:58;4.70;94.10
47576;DHT22;33304;52.456;13.328;2023-02-01T10:45:29;4.60;92.40
47576;DHT22;33304;52.456;13.328;2023-02-01T10:47:59;4.40;92.70
47576;DHT22;33304;52.456;13.328;2023-02-01T10:50:33;4.50;93.50
47576;DHT22;33304;52.456;13.328;2023-02-01T10:53:05;4.40;96.70
47576;DHT22;33304;52.456;13.328;2023-02-01T10:55:38;4.50;97.70
47576;DHT22;33304;52.456;13.328;2023-02-01T10:58:10;4.50;97.90
47576;DHT22;33304;52.456;13.328;2023-02-01T11:00:44;4.50;98.60
47576;DHT22;33304;52.456;13.328;2023-02-01T11:03:32;4.50;99.00
47576;DHT22;33304;52.456;13.328;2023-02-01T11:06:01;4.60;99.40
47576;DHT22;33304;52.456;13.328;2023-02-01T11:08:31;4.60;98.70
47576;DHT22;33304;52.456;13.328;2023-02-01T11:11:00;4.60;98.20
47576;DHT22;33304;52.456;13.328;2023-02-01T11:13:31;4.70;97.40
47576;DHT22;33304;52.456;13.328;2023-02-01T11:16:03;4.80;97.40
47576;DHT22;33304;52.456;13.328;2023-02-01T11:18:33;4.90;96.80
47576;DHT22;33304;52.456;13.328;2023-02-01T11:21:02;5.00;93.10
47576;DHT22;33304;52.456;13.328;2023-02-01T11:23:32;5.10;91.80
47576;DHT22;33304;52.456;13.328;2023-02-01T11:26:10;5.10;85.70
47576;DHT22;33304;52.456;13.328;2023-02-01T11:28:40;5.30;83.30
47576;DHT22;33304;52.456;13.328;2023-02-01T11:31:10;5.40;83.40
47576;DHT22;33304;52.456;13.328;2023-02-01T11:33:45;5.50;80.60
47576;DHT22;33304;52.456;13.328;2023-02-01T11:36:15;5.60;73.20
47576;DHT22;33304;52.456;13.328;2023-02-01T11:38:52;5.60;68.80
47576;DHT22;33304;52.456;13.328;2023-02-01T11:41:22;5.70;68.80
47576;DHT22;33304;52.456;13.328;2023-02-01T11:43:52;5.70;62.60
47576;DHT22;33304;52.456;13.328;2023-02-01T11:46:23;5.80;63.20
47576;DHT22;33304;52.456;13.328;2023-02-01T11:48:53;5.80;60.70
47576;DHT22;33304;52.456;13.328;2023-02-01T11:51:29;5.80;57.40
47576;DHT22;33304;52.456;13.328;2023-02-01T11:54:12;5.80;58.30
47576;DHT22;33304;52.456;13.328;2023-02-01T11:56:48;5.90;54.50
47576;DHT22;33304;52.456;13.328;2023-02-01T11:59:29;5.80;53.70
47576;DHT22;33304;52.456;13.328;2023-02-01T12:02:11;5.90;55.00
47576;DHT22;33304;52.456;13.328;2023-02-01T12:05:17;6.00;54.10
47576;DHT22;33304;52.456;13.328;2023-02-01T12:08:01;6.10;53.20
47576;DHT22;33304;52.456;13.328;2023-02-01T12:10:40;6.10;52.10
47576;DHT22;33304;52.456;13.328;2023-02-01T12:13:18;6.20;52.10
47576;DHT22;33304;52.456;13.328;2023-02-01T12:16:00;6.30;51.30
47576;DHT22;33304;52.456;13.328;2023-02-01T12:18:44;6.40;50.70
47576;DHT22;33304;52.456;13.328;2023-02-01T12:21:37;6.40;48.20
47576;DHT22;33304;52.456;13.328;2023-02-01T12:27:16;6.40;48.70
47576;DHT22;33304;52.456;13.328;2023-02-01T12:29:59;6.50;48.20
47576;DHT22;33304;52.456;13.328;2023-02-01T12:32:42;6.50;47.30
47576;DHT22;33304;52.456;13.328;2023-02-01T12:35:36;6.50;45.40
47576;DHT22;33304;52.456;13.328;2023-02-01T12:38:25;6.50;44.20
47576;DHT22;33304;52.456;13.328;2023-02-01T12:41:06;6.40;44.50
47576;DHT22;33304;52.456;13.328;2023-02-01T12:43:41;6.40;44.20
47576;DHT22;33304;52.456;13.328;2023-02-01T12:46:12;6.40;45.70
47576;DHT22;33304;52.456;13.328;2023-02-01T12:48:43;6.40;43.90
47576;DHT22;33304;52.456;13.328;2023-02-01T12:51:15;6.50;43.50
47576;DHT22;33304;52.456;13.328;2023-02-01T12:53:47;6.50;43.40
47576;DHT22;33304;52.456;13.328;2023-02-01T12:56:22;6.40;43.50
47576;DHT22;33304;52.456;13.328;2023-02-01T12:58:53;6.40;41.70
47576;DHT22;33304;52.456;13.328;2023-02-01T13:01:25;6.40;42.40
47576;DHT22;33304;52.456;13.328;2023-02-01T13:04:01;6.40;41.10
47576;DHT22;33304;52.456;13.328;2023-02-01T13:06:34;6.40;41.40
47576;DHT22;33304;52.456;13.328;2023-02-01T13:09:06;6.40;41.10
47576;DHT22;33304;52.456;13.328;2023-02-01T13:11:37;6.40;41.10
47576;DHT22;33304;52.456;13.328;2023-02-01T13:14:13;6.40;41.10
47576;DHT22;33304;52.456;13.328;2023-02-01T13:16:46;6.50;41.20
47576;DHT22;33304;52.456;13.328;2023-02-01T13:19:18;6.50;41.20
47576;DHT22;33304;52.456;13.328;2023-02-01T13:21:49;6.50;41.20
47576;DHT22;33304;52.456;13.328;2023-02-01T13:24:31;6.70;40.40
47576;DHT22;33304;52.456;13.328;2023-02-01T13:26:59;6.60;39.20
47576;DHT22;33304;52.456;13.328;2023-02-01T13:29:30;6.60;39.40
47576;DHT22;33304;52.456;13.328;2023-02-01T13:32:13;6.50;39.10
47576;DHT22;33304;52.456;13.328;2023-02-01T13:35:14;6.60;40.60
47576;DHT22;33304;52.456;13.328;2023-02-01T13:37:59;6.60;40.70
47576;DHT22;33304;52.456;13.328;2023-02-01T13:40:36;6.60;40.00
47576;DHT22;33304;52.456;13.328;2023-02-01T13:43:06;6.70;39.60
47576;DHT22;33304;52.456;13.328;2023-02-01T13:45:43;6.60;40.80
47576;DHT22;33304;52.456;13.328;2023-02-01T13:48:19;6.60;39.70
47576;DHT22;33304;52.456;13.328;2023-02-01T13:50:52;6.50;41.20
47576;DHT22;33304;52.456;13.328;2023-02-01T13:53:25;6.50;40.00
47576;DHT22;33304;52.456;13.328;2023-02-01T13:55:57;6.60;40.20
47576;DHT22;33304;52.456;13.328;2023-02-01T13:58:34;6.60;40.60
47576;DHT22;33304;52.456;13.328;2023-02-01T14:01:34;6.60;40.10
47576;DHT22;33304;52.456;13.328;2023-02-01T14:04:04;6.60;39.50
47576;DHT22;33304;52.456;13.328;2023-02-01T14:06:42;6.60;39.00
47576;DHT22;33304;52.456;13.328;2023-02-01T14:09:31;6.60;39.10
47576;DHT22;33304;52.456;13.328;2023-02-01T14:15:36;6.50;41.20
47576;DHT22;33304;52.456;13.328;2023-02-01T14:18:48;6.40;43.00
47576;DHT22;33304;52.456;13.328;2023-02-01T14:21:20;6.40;43.10
47576;DHT22;33304;52.456;13.328;2023-02-01T14:23:58;6.30;42.90
47576;DHT22;33304;52.456;13.328;2023-02-01T14:26:27;6.30;43.70
47576;DHT22;33304;52.456;13.328;2023-02-01T14:29:21;6.30;44.10
47576;DHT22;33304;52.456;13.328;2023-02-01T14:31:59;6.30;43.00
47576;DHT22;33304;52.456;13.328;2023-02-01T14:34:34;6.30;41.50
47576;DHT22;33304;52.456;13.328;2023-02-01T14:37:05;6.30;41.00
47576;DHT22;33304;52.456;13.328;2023-02-01T14:39:37;6.40;41.60
47576;DHT22;33304;52.456;13.328;2023-02-01T14:42:18;6.40;41.10
47576;DHT22;33304;52.456;13.328;2023-02-01T14:44:48;6.40;41.10
47576;DHT22;33304;52.456;13.328;2023-02-01T14:47:34;6.50;40.20
47576;DHT22;33304;52.456;13.328;2023-02-01T14:50:25;6.50;39.30
47576;DHT22;33304;52.456;13.328;2023-02-01T14:53:08;6.50;37.60
47576;DHT22;33304;52.456;13.328;2023-02-01T14:55:40;6.60;37.40
47576;DHT22;33304;52.456;13.328;2023-02-01T14:58:15;6.60;36.50
47576;DHT22;33304;52.456;13.328;2023-02-01T15:00:50;6.60;36.30
47576;DHT22;33304;52.456;13.328;2023-02-01T15:03:41;6.60;36.20
47576;DHT22;33304;52.456;13.328;2023-02-01T15:06:21;6.60;35.50
47576;DHT22;33304;52.456;13.328;2023-02-01T15:08:53;6.30;37.40
47576;DHT22;33304;52.456;13.328;2023-02-01T15:11:21;6.00;40.80
47576;DHT22;33304;52.456;13.328;2023-02-01T15:13:49;5.70;43.50
47576;DHT22;33304;52.456;13.328;2023-02-01T15:16:20;5.50;45.50
47576;DHT22;33304;52.456;13.328;2023-02-01T15:18:50;5.40;47.90
47576;DHT22;33304;52.456;13.328;2023-02-01T15:21:19;5.10;48.90
47576;DHT22;33304;52.456;13.328;2023-02-01T15:23:47;5.00;52.30
47576;DHT22;33304;52.456;13.328;2023-02-01T15:26:35;4.90;57.60
47576;DHT22;33304;52.456;13.328;2023-02-01T15:29:02;4.80;61.80
47576;DHT22;33304;52.456;13.328;2023-02-01T15:31:34;4.70;61.70
47576;DHT22;33304;52.456;13.328;2023-02-01T15:34:03;4.60;64.30
47576;DHT22;33304;52.456;13.328;2023-02-01T15:36:30;4.50;67.60
47576;DHT22;33304;52.456;13.328;2023-02-01T15:39:18;4.40;71.70
47576;DHT22;33304;52.456;13.328;2023-02-01T15:41:51;4.20;72.00
47576;DHT22;33304;52.456;13.328;2023-02-01T15:44:29;4.10;73.00
47576;DHT22;33304;52.456;13.328;2023-02-01T15:46:58;4.00;79.80
47576;DHT22;33304;52.456;13.328;2023-02-01T15:49:29;4.00;92.40
47576;DHT22;33304;52.456;13.328;2023-02-01T15:51:59;4.00;99.60
47576;DHT22;33304;52.456;13.328;2023-02-01T15:54:28;4.10;99.90
47576;DHT22;33304;52.456;13.328;2023-02-01T15:56:59;4.00;99.90
47576;DHT22;33304;52.456;13.328;2023-02-01T15:59:32;4.00;99.90
47576;DHT22;33304;52.456;13.328;2023-02-01T16:02:01;3.90;99.90
47576;DHT22;33304;52.456;13.328;2023-02-01T16:04:30;4.00;99.90
47576;DHT22;33304;52.456;13.328;2023-02-01T16:07:00;4.00;99.90
47576;DHT22;33304;52.456;13.328;2023-02-01T16:09:38;3.90;99.90
47576;DHT22;33304;52.456;13.328;2023-02-01T16:12:26;3.80;99.90
47576;DHT22;33304;52.456;13.328;2023-02-01T16:14:55;3.80;99.90